createdAt,value
2018-07-30T00:02:06.180Z,84.00
2018-07-30T00:04:34.638Z,84.40
2018-07-30T00:07:03.036Z,84.70
2018-07-30T00:09:31.468Z,84.90
2018-07-30T00:11:59.875Z,84.90
2018-07-30T00:14:28.372Z,84.70
2018-07-30T00:16:56.813Z,84.80
2018-07-30T00:19:25.312Z,84.80
2018-07-30T00:21:53.761Z,85.10
2018-07-30T00:26:50.301Z,85.40
2018-07-30T00:29:18.732Z,85.50
2018-07-30T00:31:47.162Z,85.50
2018-07-30T00:34:15.621Z,85.40
2018-07-30T00:36:44.153Z,85.40
2018-07-30T00:39:12.886Z,85.50
2018-07-30T00:41:41.458Z,85.40
2018-07-30T00:44:09.878Z,85.40
2018-07-30T00:46:38.546Z,85.40
2018-07-30T00:49:07.628Z,85.40
2018-07-30T00:51:36.095Z,85.40
2018-07-30T00:54:04.563Z,85.50
2018-07-30T00:56:33.026Z,85.70
2018-07-30T00:59:01.437Z,85.70
2018-07-30T01:01:29.876Z,85.70
2018-07-30T01:03:58.364Z,85.60
2018-07-30T01:06:26.802Z,86.00
2018-07-30T01:08:55.216Z,86.30
2018-07-30T01:11:23.657Z,86.50
2018-07-30T01:13:52.280Z,86.50
2018-07-30T01:16:20.727Z,86.50
2018-07-30T01:18:49.161Z,86.50
2018-07-30T01:21:17.601Z,86.30
2018-07-30T01:23:45.996Z,86.30
2018-07-30T01:26:19.894Z,86.10
2018-07-30T01:28:48.328Z,85.90
2018-07-30T01:31:16.757Z,86.00
2018-07-30T01:33:45.165Z,85.90
2018-07-30T01:36:13.594Z,85.70
2018-07-30T01:38:42.017Z,85.60
2018-07-30T01:41:10.450Z,85.60
2018-07-30T01:43:38.900Z,85.50
2018-07-30T01:51:03.620Z,85.40
2018-07-30T01:53:32.017Z,85.40
2018-07-30T01:56:00.752Z,85.40
2018-07-30T01:58:29.189Z,85.50
2018-07-30T02:00:57.633Z,85.50
2018-07-30T02:03:26.089Z,85.80
2018-07-30T02:05:54.871Z,85.70
2018-07-30T02:08:23.326Z,85.70
2018-07-30T02:10:51.803Z,85.80
2018-07-30T02:13:20.240Z,85.80
2018-07-30T02:15:48.733Z,85.80
2018-07-30T02:18:17.178Z,85.80
2018-07-30T02:20:45.753Z,85.90
2018-07-30T02:23:14.194Z,86.00
2018-07-30T02:25:42.688Z,86.00
2018-07-30T02:28:11.121Z,86.00
2018-07-30T02:30:39.530Z,86.10
2018-07-30T02:33:07.987Z,86.20
2018-07-30T02:35:36.396Z,86.10
2018-07-30T02:38:04.893Z,86.20
2018-07-30T02:40:33.329Z,86.30
2018-07-30T02:43:01.868Z,86.30
2018-07-30T02:45:30.322Z,86.50
2018-07-30T02:47:58.798Z,86.60
2018-07-30T02:50:27.278Z,86.60
2018-07-30T02:52:55.719Z,86.50
2018-07-30T02:55:24.137Z,86.50
2018-07-30T02:57:52.621Z,86.60
2018-07-30T03:00:21.069Z,86.50
2018-07-30T03:02:49.740Z,86.50
2018-07-30T03:05:19.021Z,86.50
2018-07-30T03:07:47.516Z,86.60
2018-07-30T03:10:15.928Z,86.80
2018-07-30T03:12:44.556Z,86.80
2018-07-30T03:15:13.153Z,86.90
2018-07-30T03:20:10.209Z,87.00
2018-07-30T03:25:07.049Z,87.10
2018-07-30T03:27:35.525Z,87.20
2018-07-30T03:30:04.725Z,87.10
2018-07-30T03:32:33.154Z,87.00
2018-07-30T03:35:01.565Z,86.60
2018-07-30T03:37:30.025Z,86.50
2018-07-30T03:39:58.648Z,86.60
2018-07-30T03:42:27.177Z,86.80
2018-07-30T03:44:55.581Z,86.80
2018-07-30T03:47:24.040Z,87.10
2018-07-30T03:49:52.472Z,87.10
2018-07-30T03:52:20.980Z,87.00
2018-07-30T03:54:49.431Z,87.10
2018-07-30T03:57:17.873Z,86.90
2018-07-30T03:59:46.321Z,87.00
2018-07-30T04:02:14.776Z,86.90
2018-07-30T04:04:43.180Z,87.20
2018-07-30T04:07:11.619Z,87.80
2018-07-30T04:09:40.152Z,88.40
2018-07-30T04:12:08.600Z,88.70
2018-07-30T04:14:37.076Z,88.80
2018-07-30T04:17:05.487Z,88.80
2018-07-30T04:19:33.952Z,88.70
2018-07-30T04:22:02.401Z,88.70
2018-07-30T04:24:30.888Z,88.60
2018-07-30T04:26:59.292Z,88.40
2018-07-30T04:29:27.716Z,88.40
2018-07-30T04:31:56.133Z,88.30
2018-07-30T04:34:24.569Z,88.30
2018-07-30T04:36:52.980Z,88.20
2018-07-30T04:39:21.418Z,88.20
2018-07-30T04:44:18.047Z,88.10
2018-07-30T04:46:46.461Z,88.20
2018-07-30T04:49:14.929Z,88.30
2018-07-30T04:51:43.344Z,88.40
2018-07-30T04:54:11.768Z,88.20
2018-07-30T04:56:40.201Z,88.10
2018-07-30T04:59:08.662Z,87.70
2018-07-30T05:01:37.069Z,87.50
2018-07-30T05:04:05.544Z,87.20
2018-07-30T05:06:33.964Z,86.80
2018-07-30T05:09:02.422Z,86.50
2018-07-30T05:11:30.835Z,86.30
2018-07-30T05:13:59.288Z,85.90
2018-07-30T05:16:27.702Z,86.10
2018-07-30T05:18:56.188Z,85.90
2018-07-30T05:21:24.635Z,85.80
2018-07-30T05:23:53.093Z,86.00
2018-07-30T05:26:21.500Z,86.00
2018-07-30T05:28:49.953Z,85.80
2018-07-30T05:31:18.377Z,86.00
2018-07-30T05:33:46.912Z,85.90
2018-07-30T05:36:15.345Z,86.10
2018-07-30T05:38:43.768Z,85.70
2018-07-30T05:41:12.259Z,85.60
2018-07-30T05:43:40.719Z,85.50
2018-07-30T05:46:09.153Z,84.70
2018-07-30T05:48:37.592Z,84.30
2018-07-30T05:51:06.157Z,83.90
2018-07-30T05:53:34.572Z,83.70
2018-07-30T05:56:03.299Z,83.70
2018-07-30T05:58:31.717Z,83.40
2018-07-30T06:01:00.144Z,83.50
2018-07-30T06:03:28.583Z,83.40
2018-07-30T06:05:57.017Z,82.80
2018-07-30T06:08:25.469Z,82.50
2018-07-30T06:10:53.905Z,81.80
2018-07-30T06:13:22.521Z,81.10
2018-07-30T06:15:50.952Z,80.30
2018-07-30T06:18:19.375Z,78.90
2018-07-30T06:20:47.876Z,78.30
2018-07-30T06:23:16.331Z,77.10
2018-07-30T06:25:44.945Z,76.70
2018-07-30T06:28:13.361Z,75.10
2018-07-30T06:30:41.824Z,71.80
2018-07-30T06:33:10.244Z,71.40
2018-07-30T06:35:38.685Z,68.30
2018-07-30T06:38:07.168Z,66.30
2018-07-30T06:40:35.672Z,67.00
2018-07-30T06:43:04.154Z,65.30
2018-07-30T06:45:32.616Z,63.70
2018-07-30T06:48:01.069Z,61.80
2018-07-30T06:50:29.832Z,61.50
2018-07-30T06:52:58.245Z,59.50
2018-07-30T06:55:26.687Z,59.60
2018-07-30T06:57:55.089Z,61.30
2018-07-30T07:00:23.672Z,61.60
2018-07-30T07:02:52.134Z,59.50
2018-07-30T07:05:20.585Z,60.20
2018-07-30T07:10:17.192Z,58.20
2018-07-30T07:12:45.680Z,57.40
2018-07-30T07:15:14.716Z,56.50
2018-07-30T07:17:44.607Z,54.90
2018-07-30T07:22:41.188Z,54.50
2018-07-30T07:25:09.719Z,53.90
2018-07-30T07:27:38.144Z,52.20
2018-07-30T07:30:07.761Z,51.20
2018-07-30T07:32:36.263Z,51.60
2018-07-30T07:35:05.480Z,51.30
2018-07-30T07:37:33.917Z,50.90
2018-07-30T07:40:02.449Z,49.70
2018-07-30T07:42:30.893Z,49.20
2018-07-30T07:44:59.341Z,49.80
2018-07-30T07:47:27.736Z,47.90
2018-07-30T07:49:56.178Z,47.30
2018-07-30T07:52:24.643Z,47.90
2018-07-30T07:54:53.110Z,49.80
2018-07-30T07:57:21.561Z,49.90
2018-07-30T08:02:18.121Z,45.70
2018-07-30T08:04:46.520Z,45.70
2018-07-30T08:07:14.980Z,46.40
2018-07-30T08:09:43.406Z,45.00
2018-07-30T08:12:11.923Z,44.10
2018-07-30T08:14:40.353Z,44.90
2018-07-30T08:17:08.801Z,44.40
2018-07-30T08:19:37.249Z,45.50
2018-07-30T08:22:05.987Z,45.80
2018-07-30T08:24:34.424Z,46.30
2018-07-30T08:27:02.991Z,46.30
2018-07-30T08:29:31.430Z,45.40
2018-07-30T08:32:00.018Z,44.80
2018-07-30T08:34:28.448Z,45.60
2018-07-30T08:36:56.936Z,45.70
2018-07-30T08:41:53.573Z,45.70
2018-07-30T08:44:22.052Z,43.90
2018-07-30T08:46:50.522Z,43.30
2018-07-30T08:49:18.933Z,43.60
2018-07-30T08:51:47.381Z,44.00
2018-07-30T08:54:15.810Z,44.40
2018-07-30T08:56:44.261Z,44.50
2018-07-30T08:59:12.684Z,43.60
2018-07-30T09:01:41.185Z,43.80
2018-07-30T09:04:09.619Z,42.10
2018-07-30T09:06:38.080Z,41.50
2018-07-30T09:09:08.760Z,43.50
2018-07-30T09:11:37.497Z,44.00
2018-07-30T09:14:06.269Z,44.70
2018-07-30T09:16:34.739Z,45.00
2018-07-30T09:19:03.173Z,43.80
2018-07-30T09:21:31.637Z,42.80
2018-07-30T09:24:00.066Z,44.90
2018-07-30T09:26:28.634Z,46.20
2018-07-30T09:28:57.054Z,44.40
2018-07-30T09:31:25.497Z,43.20
2018-07-30T09:33:54.380Z,43.20
2018-07-30T09:36:25.192Z,43.50
2018-07-30T09:38:53.912Z,43.10
2018-07-30T09:41:22.466Z,42.10
2018-07-30T09:46:19.132Z,44.40
2018-07-30T09:48:47.582Z,42.70
2018-07-30T09:51:16.011Z,44.00
2018-07-30T09:53:44.556Z,46.10
2018-07-30T09:56:13.045Z,48.10
2018-07-30T09:58:41.509Z,49.30
2018-07-30T10:01:40.668Z,49.80
2018-07-30T10:04:09.109Z,49.50
2018-07-30T10:06:37.536Z,50.90
2018-07-30T10:11:36.304Z,51.20
2018-07-30T10:14:04.771Z,51.50
2018-07-30T10:16:33.187Z,50.50
2018-07-30T10:19:01.662Z,47.80
2018-07-30T10:21:30.114Z,46.50
2018-07-30T10:23:58.555Z,45.00
2018-07-30T10:26:26.957Z,43.30
2018-07-30T10:28:55.376Z,43.10
2018-07-30T10:31:23.797Z,43.20
2018-07-30T10:33:52.276Z,43.10
2018-07-30T10:36:20.696Z,42.10
2018-07-30T10:38:49.165Z,42.10
2018-07-30T10:41:17.585Z,42.30
2018-07-30T10:43:46.045Z,41.50
2018-07-30T10:46:14.455Z,41.50
2018-07-30T10:48:42.901Z,41.90
2018-07-30T10:51:11.368Z,41.90
2018-07-30T10:53:39.855Z,45.30
2018-07-30T10:56:08.347Z,45.60
2018-07-30T10:58:36.788Z,47.10
2018-07-30T11:01:05.247Z,47.40
2018-07-30T11:03:33.700Z,49.00
2018-07-30T11:06:02.130Z,49.50
2018-07-30T11:08:30.578Z,49.30
2018-07-30T11:10:59.029Z,50.90
2018-07-30T11:13:27.501Z,52.50
2018-07-30T11:15:55.913Z,54.70
2018-07-30T11:18:24.378Z,54.70
2018-07-30T11:20:53.250Z,55.10
2018-07-30T11:23:21.708Z,55.80
2018-07-30T11:25:50.117Z,55.90
2018-07-30T11:28:18.625Z,55.80
2018-07-30T11:30:47.059Z,56.80
2018-07-30T11:33:15.568Z,57.00
2018-07-30T11:35:43.997Z,56.50
2018-07-30T11:38:12.613Z,56.00
2018-07-30T11:40:41.128Z,56.00
2018-07-30T11:43:09.578Z,55.60
2018-07-30T11:45:38.019Z,55.00
2018-07-30T11:48:06.455Z,54.50
2018-07-30T11:50:34.904Z,55.10
2018-07-30T11:53:03.338Z,55.20
2018-07-30T11:55:31.770Z,54.90
2018-07-30T11:58:00.205Z,54.40
2018-07-30T12:00:28.668Z,54.50
2018-07-30T12:02:57.085Z,55.50
2018-07-30T12:05:25.511Z,56.00
2018-07-30T12:07:53.913Z,55.70
2018-07-30T12:10:22.361Z,55.50
2018-07-30T12:12:50.773Z,55.70
2018-07-30T12:15:19.214Z,56.10
2018-07-30T12:17:47.620Z,56.20
2018-07-30T12:20:16.063Z,56.70
2018-07-30T12:22:44.488Z,56.20
2018-07-30T12:25:12.940Z,56.60
2018-07-30T12:30:09.559Z,57.20
2018-07-30T12:32:37.939Z,57.30
2018-07-30T12:35:06.424Z,56.90
2018-07-30T12:37:34.822Z,56.70
2018-07-30T12:40:03.279Z,57.20
2018-07-30T12:42:31.752Z,56.90
2018-07-30T12:45:00.248Z,58.20
2018-07-30T12:47:28.623Z,58.20
2018-07-30T12:49:57.131Z,57.50
2018-07-30T12:52:25.581Z,58.30
2018-07-30T12:54:54.042Z,59.10
2018-07-30T12:57:22.520Z,59.20
2018-07-30T12:59:51.063Z,58.30
2018-07-30T13:04:47.672Z,58.60
2018-07-30T13:07:16.179Z,57.40
2018-07-30T13:09:44.817Z,58.10
2018-07-30T13:12:13.235Z,58.90
2018-07-30T13:14:41.680Z,58.60
2018-07-30T13:17:10.162Z,58.40
2018-07-30T13:19:38.622Z,58.10
2018-07-30T13:22:07.098Z,58.40
2018-07-30T13:24:35.526Z,58.50
2018-07-30T13:27:03.972Z,57.90
2018-07-30T13:29:32.380Z,58.70
2018-07-30T13:32:00.820Z,57.30
2018-07-30T13:34:29.262Z,58.10
2018-07-30T13:36:57.701Z,58.30
2018-07-30T13:39:26.128Z,57.20
2018-07-30T13:41:54.566Z,57.00
2018-07-30T13:44:23.068Z,57.20
2018-07-30T13:46:51.501Z,57.30
2018-07-30T13:49:19.911Z,58.10
2018-07-30T13:51:48.360Z,57.20
2018-07-30T13:54:16.869Z,57.00
2018-07-30T13:56:45.356Z,56.80
2018-07-30T13:59:13.804Z,57.20
2018-07-30T14:01:42.236Z,58.30
2018-07-30T14:04:10.668Z,57.50
2018-07-30T14:06:39.125Z,57.40
2018-07-30T14:09:09.538Z,57.20
2018-07-30T14:11:37.980Z,57.70
2018-07-30T14:14:06.692Z,57.80
2018-07-30T14:16:35.176Z,58.10
2018-07-30T14:19:03.625Z,58.10
2018-07-30T14:21:32.134Z,58.60
2018-07-30T14:24:00.573Z,58.90
2018-07-30T14:26:29.069Z,58.90
2018-07-30T14:28:57.580Z,59.40
2018-07-30T14:31:26.049Z,58.70
2018-07-30T14:33:54.516Z,59.40
2018-07-30T14:36:23.025Z,58.90
2018-07-30T14:38:51.616Z,57.90
2018-07-30T14:41:20.037Z,58.30
2018-07-30T14:43:48.478Z,58.20
2018-07-30T14:46:16.913Z,58.90
2018-07-30T14:48:45.358Z,58.90
2018-07-30T14:51:13.805Z,58.90
2018-07-30T14:53:42.210Z,59.30
2018-07-30T14:56:10.765Z,59.10
2018-07-30T14:58:39.196Z,58.70
2018-07-30T15:01:07.744Z,58.50
2018-07-30T15:03:36.148Z,58.50
2018-07-30T15:06:04.752Z,57.80
2018-07-30T15:08:33.272Z,57.90
2018-07-30T15:11:01.679Z,57.70
2018-07-30T15:13:30.112Z,57.40
2018-07-30T15:15:58.823Z,58.20
2018-07-30T15:18:27.250Z,57.80
2018-07-30T15:20:55.738Z,57.80
2018-07-30T15:23:24.209Z,58.60
2018-07-30T15:25:52.661Z,58.10
2018-07-30T15:28:21.096Z,58.40
2018-07-30T15:30:49.606Z,57.90
2018-07-30T15:35:46.124Z,58.40
2018-07-30T15:38:14.556Z,58.40
2018-07-30T15:40:43.083Z,58.50
2018-07-30T15:43:11.510Z,58.10
2018-07-30T15:45:39.940Z,57.80
2018-07-30T15:48:08.830Z,58.60
2018-07-30T15:50:37.276Z,58.50
2018-07-30T15:53:05.830Z,59.00
2018-07-30T15:55:34.252Z,59.50
2018-07-30T15:58:02.797Z,58.70
2018-07-30T16:00:31.217Z,59.20
2018-07-30T16:02:59.664Z,59.00
2018-07-30T16:05:28.117Z,59.00
2018-07-30T16:07:56.568Z,59.40
2018-07-30T16:10:25.024Z,59.30
2018-07-30T16:12:53.464Z,59.10
2018-07-30T16:15:21.948Z,59.20
2018-07-30T16:22:46.636Z,60.00
2018-07-30T16:27:43.215Z,59.90
2018-07-30T16:30:11.624Z,59.80
2018-07-30T16:32:40.067Z,60.10
2018-07-30T16:35:08.497Z,59.90
2018-07-30T16:37:37.049Z,60.40
2018-07-30T16:40:06.105Z,59.80
2018-07-30T16:42:34.978Z,59.60
2018-07-30T16:45:03.705Z,59.90
2018-07-30T16:47:32.133Z,59.10
2018-07-30T16:50:00.581Z,59.30
2018-07-30T16:52:29.016Z,59.20
2018-07-30T16:54:57.512Z,59.30
2018-07-30T16:57:25.920Z,59.80
2018-07-30T16:59:54.395Z,59.10
2018-07-30T17:02:22.805Z,59.80
2018-07-30T17:04:51.261Z,59.30
2018-07-30T17:07:19.836Z,59.50
2018-07-30T17:09:48.251Z,59.80
2018-07-30T17:12:16.741Z,60.00
2018-07-30T17:14:45.175Z,59.10
2018-07-30T17:17:13.617Z,60.30
2018-07-30T17:19:42.116Z,59.50
2018-07-30T17:22:10.588Z,59.10
2018-07-30T17:24:39.068Z,59.30
2018-07-30T17:27:07.569Z,58.90
2018-07-30T17:29:36.032Z,58.20
2018-07-30T17:32:04.457Z,58.90
2018-07-30T17:34:32.902Z,58.20
2018-07-30T17:39:29.449Z,59.30
2018-07-30T17:44:26.000Z,59.60
2018-07-30T17:46:54.404Z,59.10
2018-07-30T17:49:22.837Z,59.10
2018-07-30T17:51:51.274Z,60.00
2018-07-30T17:54:19.721Z,59.30
2018-07-30T17:56:48.140Z,59.40
2018-07-30T18:01:44.716Z,60.20
2018-07-30T18:09:10.172Z,59.50
2018-07-30T18:11:38.818Z,61.20
2018-07-30T18:14:07.309Z,61.90
2018-07-30T18:16:35.908Z,62.60
2018-07-30T18:19:04.375Z,62.60
2018-07-30T18:21:32.792Z,62.60
2018-07-30T18:24:01.306Z,63.00
2018-07-30T18:26:29.731Z,63.20
2018-07-30T18:28:58.217Z,63.20
2018-07-30T18:31:26.691Z,63.50
2018-07-30T18:33:55.113Z,63.70
2018-07-30T18:36:25.376Z,63.70
2018-07-30T18:38:53.800Z,64.00
2018-07-30T18:41:22.275Z,64.20
2018-07-30T18:43:50.756Z,64.00
2018-07-30T18:46:19.181Z,64.50
2018-07-30T18:48:47.582Z,65.70
2018-07-30T18:51:16.038Z,65.40
2018-07-30T18:53:44.443Z,65.70
2018-07-30T18:56:12.920Z,66.00
2018-07-30T18:58:41.332Z,66.20
2018-07-30T19:01:09.796Z,66.80
2018-07-30T19:03:38.263Z,66.70
2018-07-30T19:06:08.573Z,67.10
2018-07-30T19:08:37.015Z,67.50
2018-07-30T19:11:05.818Z,67.40
2018-07-30T19:13:34.267Z,68.30
2018-07-30T19:18:30.817Z,68.60
2018-07-30T19:23:28.252Z,68.90
2018-07-30T19:25:56.728Z,69.00
2018-07-30T19:28:25.138Z,69.50
2018-07-30T19:33:21.698Z,70.10
2018-07-30T19:35:50.202Z,70.40
2018-07-30T19:38:18.949Z,70.60
2018-07-30T19:40:47.471Z,70.80
2018-07-30T19:43:15.900Z,71.00
2018-07-30T19:48:12.959Z,71.60
2018-07-30T19:50:41.557Z,71.70
2018-07-30T19:53:09.980Z,71.70
2018-07-30T19:55:38.612Z,72.10
2018-07-30T19:58:07.490Z,72.00
2018-07-30T20:00:35.807Z,72.30
2018-07-30T20:03:04.275Z,72.50
2018-07-30T20:05:32.930Z,72.50
2018-07-30T20:08:01.378Z,72.40
2018-07-30T20:10:29.842Z,73.00
2018-07-30T20:12:58.269Z,73.50
2018-07-30T20:15:26.692Z,74.20
2018-07-30T20:17:55.190Z,74.60
2018-07-30T20:22:53.298Z,75.10
2018-07-30T20:25:21.721Z,75.20
2018-07-30T20:27:50.155Z,75.10
2018-07-30T20:30:18.579Z,74.80
2018-07-30T20:32:47.029Z,74.90
2018-07-30T20:35:15.475Z,75.60
2018-07-30T20:37:44.926Z,75.90
2018-07-30T20:40:13.572Z,76.20
2018-07-30T20:42:42.371Z,76.30
2018-07-30T20:47:38.916Z,76.30
2018-07-30T20:50:07.379Z,76.60
2018-07-30T20:52:35.804Z,76.50
2018-07-30T20:55:04.297Z,76.50
2018-07-30T20:57:32.753Z,76.10
2018-07-30T21:00:01.190Z,76.50
2018-07-30T21:02:29.663Z,76.90
2018-07-30T21:04:58.091Z,76.90
2018-07-30T21:07:26.555Z,76.90
2018-07-30T21:09:54.993Z,76.90
2018-07-30T21:12:23.464Z,76.80
2018-07-30T21:14:52.003Z,76.90
2018-07-30T21:17:20.500Z,77.10
2018-07-30T21:19:48.892Z,77.40
2018-07-30T21:22:17.369Z,77.70
2018-07-30T21:27:13.908Z,78.30
2018-07-30T21:29:42.361Z,78.20
2018-07-30T21:32:10.825Z,78.30
2018-07-30T21:34:39.228Z,78.50
2018-07-30T21:37:07.704Z,78.30
2018-07-30T21:39:36.149Z,78.40
2018-07-30T21:42:04.705Z,78.50
2018-07-30T21:44:33.128Z,78.60
2018-07-30T21:47:01.572Z,78.80
2018-07-30T21:49:29.988Z,78.80
2018-07-30T21:51:58.416Z,78.90
2018-07-30T21:54:26.836Z,78.80
2018-07-30T21:56:55.292Z,78.80
2018-07-30T21:59:24.067Z,78.90
2018-07-30T22:01:52.544Z,78.90
2018-07-30T22:04:20.992Z,78.90
2018-07-30T22:06:49.449Z,78.90
2018-07-30T22:09:17.889Z,78.90
2018-07-30T22:11:46.380Z,78.90
2018-07-30T22:14:14.784Z,79.00
2018-07-30T22:16:43.196Z,79.10
2018-07-30T22:19:11.688Z,79.10
2018-07-30T22:21:40.116Z,79.10
2018-07-30T22:24:08.575Z,79.10
2018-07-30T22:26:37.032Z,79.20
2018-07-30T22:29:05.525Z,79.40
2018-07-30T22:31:33.955Z,79.50
2018-07-30T22:34:02.388Z,79.70
2018-07-30T22:36:30.796Z,79.70
2018-07-30T22:38:59.228Z,79.80
2018-07-30T22:41:27.649Z,79.80
2018-07-30T22:43:56.224Z,79.80
2018-07-30T22:46:24.629Z,79.90
2018-07-30T22:48:53.068Z,80.40
2018-07-30T22:51:21.482Z,80.80
2018-07-30T22:53:49.927Z,80.60
2018-07-30T22:56:18.349Z,80.60
2018-07-30T22:58:46.785Z,80.80
2018-07-30T23:01:15.195Z,81.00
2018-07-30T23:06:11.727Z,81.60
2018-07-30T23:08:40.188Z,81.60
2018-07-30T23:11:08.597Z,81.00
2018-07-30T23:13:37.056Z,81.00
2018-07-30T23:16:05.600Z,81.00
2018-07-30T23:18:34.046Z,80.10
2018-07-30T23:21:02.459Z,80.20
2018-07-30T23:23:30.892Z,80.20
2018-07-30T23:25:59.304Z,80.00
2018-07-30T23:28:27.785Z,79.90
2018-07-30T23:30:56.209Z,79.80
2018-07-30T23:33:24.656Z,79.80
2018-07-30T23:40:50.316Z,79.60
2018-07-30T23:43:18.776Z,79.50
2018-07-30T23:45:47.186Z,79.60
2018-07-30T23:48:15.638Z,79.70
2018-07-30T23:50:44.076Z,79.70
2018-07-30T23:53:12.672Z,79.70
2018-07-30T23:55:41.134Z,79.80
2018-07-30T23:58:09.584Z,80.00
